Time,TemperatureF,DewpointF,PressureIn,WindDirection,WindDirectionDegrees,WindSpeedMPH,WindSpeedGustMPH,Humidity,HourlyPrecipIn,Conditions,Clouds,dailyrainin,SoftwareType,DateUTC
2013-05-13 00:00:00,60.5,41.8,29.94,North,0,0.0,0.0,50,0.00,,,0.00,WUHU216HW,2013-05-13 04:00:00,
2013-05-13 00:01:00,60.5,41.8,29.94,North,0,0.0,0.0,50,0.00,,,0.00,WUHU216HW,2013-05-13 04:01:00,
2013-05-13 00:02:00,60.5,41.8,29.94,North,0,0.0,0.0,50,0.00,,,0.00,WUHU216HW,2013-05-13 04:02:00,
2013-05-13 00:05:00,60.5,41.8,29.94,North,0,0.0,0.0,50,0.00,,,0.00,WUHU216HW,2013-05-13 04:05:00,
2013-05-13 00:30:00,59.6,41.5,29.95,North,0,0.0,0.0,51,0.00,,,0.00,WUHU216HW,2013-05-13 04:30:00,
2013-05-13 00:31:00,59.6,41.5,29.95,North,0,0.0,0.0,51,0.00,,,0.00,WUHU216HW,2013-05-13 04:31:00,
2013-05-13 00:36:00,59.6,41.5,29.95,North,0,0.0,0.0,51,0.00,,,0.00,WUHU216HW,2013-05-13 04:36:00,
2013-05-13 01:00:00,58.5,41.0,29.95,North,0,0.0,0.0,52,0.00,,,0.00,WUHU216HW,2013-05-13 05:00:00,
2013-05-13 01:01:00,58.5,41.0,29.95,North,0,0.0,0.0,52,0.00,,,0.00,WUHU216HW,2013-05-13 05:01:00,
2013-05-13 01:06:00,58.5,41.0,29.95,North,0,0.0,0.0,52,0.00,,,0.00,WUHU216HW,2013-05-13 05:06:00,
2013-05-13 01:30:00,57.2,40.8,29.95,North,0,0.0,0.0,54,0.00,,,0.00,WUHU216HW,2013-05-13 05:30:00,
2013-05-13 01:31:00,57.2,40.8,29.95,North,0,0.0,0.0,54,0.00,,,0.00,WUHU216HW,2013-05-13 05:31:00,
2013-05-13 01:36:00,57.2,40.8,29.95,North,0,0.0,0.0,54,0.00,,,0.00,WUHU216HW,2013-05-13 05:36:00,
2013-05-13 02:00:00,56.2,40.6,29.96,North,0,0.0,0.0,56,0.00,,,0.00,WUHU216HW,2013-05-13 06:00:00,
2013-05-13 02:01:00,56.2,40.6,29.96,North,0,0.0,0.0,56,0.00,,,0.00,WUHU216HW,2013-05-13 06:01:00,
2013-05-13 02:06:00,56.2,40.6,29.96,North,0,0.0,0.0,56,0.00,,,0.00,WUHU216HW,2013-05-13 06:06:00,
2013-05-13 02:30:00,55.1,40.5,29.96,North,0,0.0,0.0,58,0.00,,,0.00,WUHU216HW,2013-05-13 06:30:00,
2013-05-13 02:31:00,55.1,40.5,29.96,North,0,0.0,0.0,58,0.00,,,0.00,WUHU216HW,2013-05-13 06:31:00,
2013-05-13 02:36:00,55.1,40.5,29.96,North,0,0.0,0.0,58,0.00,,,0.00,WUHU216HW,2013-05-13 06:36:00,
2013-05-13 03:00:00,54.0,40.9,29.96,North,0,0.0,0.0,61,0.00,,,0.00,WUHU216HW,2013-05-13 07:00:00,
2013-05-13 03:01:00,54.0,40.9,29.96,North,0,0.0,0.0,61,0.00,,,0.00,WUHU216HW,2013-05-13 07:01:00,
2013-05-13 03:06:00,54.0,40.9,29.96,North,0,0.0,0.0,61,0.00,,,0.00,WUHU216HW,2013-05-13 07:06:00,
2013-05-13 03:30:00,53.1,40.8,29.97,North,0,0.0,0.0,63,0.00,,,0.00,WUHU216HW,2013-05-13 07:30:00,
2013-05-13 03:31:00,53.1,40.8,29.97,North,0,0.0,0.0,63,0.00,,,0.00,WUHU216HW,2013-05-13 07:31:00,
2013-05-13 03:36:00,53.1,40.8,29.97,North,0,0.0,0.0,63,0.00,,,0.00,WUHU216HW,2013-05-13 07:36:00,
2013-05-13 04:00:00,52.6,40.7,29.97,North,0,0.0,0.0,64,0.00,,,0.00,WUHU216HW,2013-05-13 08:00:00,
2013-05-13 04:01:00,52.6,40.7,29.97,North,0,0.0,0.0,64,0.00,,,0.00,WUHU216HW,2013-05-13 08:01:00,
2013-05-13 04:06:00,52.6,40.7,29.97,North,0,0.0,0.0,64,0.00,,,0.00,WUHU216HW,2013-05-13 08:06:00,
2013-05-13 04:30:00,52.0,40.1,29.99,North,0,0.0,0.0,64,0.00,,,0.00,WUHU216HW,2013-05-13 08:30:00,
2013-05-13 04:31:00,52.0,40.1,29.99,North,0,0.0,0.0,64,0.00,,,0.00,WUHU216HW,2013-05-13 08:31:00,
2013-05-13 04:36:00,52.0,40.1,29.99,North,0,0.0,0.0,64,0.00,,,0.00,WUHU216HW,2013-05-13 08:36:00,
2013-05-13 05:00:00,51.5,40.1,29.99,North,0,0.0,0.0,65,0.00,,,0.00,WUHU216HW,2013-05-13 09:00:00,
2013-05-13 05:01:00,51.5,40.1,29.99,North,0,0.0,0.0,65,0.00,,,0.00,WUHU216HW,2013-05-13 09:01:00,
2013-05-13 05:06:00,51.5,40.1,29.99,North,0,0.0,0.0,65,0.00,,,0.00,WUHU216HW,2013-05-13 09:06:00,
2013-05-13 05:30:00,50.8,39.8,30.00,North,0,0.0,0.0,66,0.00,,,0.00,WUHU216HW,2013-05-13 09:30:00,
2013-05-13 05:31:00,50.8,39.8,30.00,North,0,0.0,0.0,66,0.00,,,0.00,WUHU216HW,2013-05-13 09:31:00,
2013-05-13 05:36:00,50.8,39.8,30.00,North,0,0.0,0.0,66,0.00,,,0.00,WUHU216HW,2013-05-13 09:36:00,
2013-05-13 06:00:00,50.4,39.9,30.00,North,0,0.0,0.0,67,0.00,,,0.00,WUHU216HW,2013-05-13 10:00:00,
2013-05-13 06:01:00,50.4,39.9,30.00,North,0,0.0,0.0,67,0.00,,,0.00,WUHU216HW,2013-05-13 10:01:00,
2013-05-13 06:06:00,50.4,39.9,30.00,North,0,0.0,0.0,67,0.00,,,0.00,WUHU216HW,2013-05-13 10:06:00,
2013-05-13 06:30:00,50.0,39.9,30.02,North,0,0.0,0.0,68,0.00,,,0.00,WUHU216HW,2013-05-13 10:30:00,
2013-05-13 06:31:00,50.0,39.9,30.02,North,0,0.0,0.0,68,0.00,,,0.00,WUHU216HW,2013-05-13 10:31:00,
2013-05-13 06:36:00,50.0,39.9,30.02,North,0,0.0,0.0,68,0.00,,,0.00,WUHU216HW,2013-05-13 10:36:00,
2013-05-13 07:00:00,49.5,39.8,30.03,North,0,0.0,0.0,69,0.00,,,0.00,WUHU216HW,2013-05-13 11:00:00,
2013-05-13 07:01:00,49.5,39.8,30.03,North,0,0.0,0.0,69,0.00,,,0.00,WUHU216HW,2013-05-13 11:01:00,
2013-05-13 07:06:00,49.5,39.8,30.03,North,0,0.0,0.0,69,0.00,,,0.00,WUHU216HW,2013-05-13 11:06:00,
2013-05-13 07:30:00,49.5,40.1,30.04,North,0,0.0,0.0,70,0.00,,,0.00,WUHU216HW,2013-05-13 11:30:00,
2013-05-13 07:31:00,49.5,40.1,30.04,North,0,0.0,0.0,70,0.00,,,0.00,WUHU216HW,2013-05-13 11:31:00,
2013-05-13 07:36:00,49.5,40.1,30.04,North,0,0.0,0.0,70,0.00,,,0.00,WUHU216HW,2013-05-13 11:36:00,
2013-05-13 08:00:00,50.4,41.8,30.05,North,0,0.0,0.0,72,0.00,,,0.00,WUHU216HW,2013-05-13 12:00:00,
2013-05-13 08:01:00,50.4,41.8,30.05,North,0,0.0,0.0,72,0.00,,,0.00,WUHU216HW,2013-05-13 12:01:00,
2013-05-13 08:06:00,50.4,41.8,30.05,North,0,0.0,0.0,72,0.00,,,0.00,WUHU216HW,2013-05-13 12:06:00,
2013-05-13 08:30:00,53.1,42.9,30.06,North,0,0.0,0.0,68,0.00,,,0.00,WUHU216HW,2013-05-13 12:30:00,
2013-05-13 08:31:00,53.1,42.9,30.06,North,0,0.0,0.0,68,0.00,,,0.00,WUHU216HW,2013-05-13 12:31:00,
2013-05-13 08:36:00,53.1,42.9,30.06,North,0,0.0,0.0,68,0.00,,,0.00,WUHU216HW,2013-05-13 12:36:00,
2013-05-13 09:00:00,55.4,42.6,30.06,North,0,0.0,0.0,62,0.00,,,0.00,WUHU216HW,2013-05-13 13:00:00,
2013-05-13 09:01:00,55.4,42.6,30.06,North,0,0.0,0.0,62,0.00,,,0.00,WUHU216HW,2013-05-13 13:01:00,
2013-05-13 09:06:00,55.4,42.6,30.06,North,0,0.0,0.0,62,0.00,,,0.00,WUHU216HW,2013-05-13 13:06:00,
2013-05-13 09:30:00,60.8,44.1,30.06,North,0,0.0,0.0,54,0.00,,,0.00,WUHU216HW,2013-05-13 13:30:00,
2013-05-13 09:31:00,60.8,44.1,30.06,North,0,0.0,0.0,54,0.00,,,0.00,WUHU216HW,2013-05-13 13:31:00,
2013-05-13 09:36:00,60.8,44.1,30.06,North,0,0.0,0.0,54,0.00,,,0.00,WUHU216HW,2013-05-13 13:36:00,
2013-05-13 10:00:00,62.8,43.3,30.07,North,0,0.0,0.0,49,0.00,,,0.00,WUHU216HW,2013-05-13 14:00:00,
2013-05-13 10:01:00,62.8,43.3,30.07,North,0,0.0,0.0,49,0.00,,,0.00,WUHU216HW,2013-05-13 14:01:00,
2013-05-13 10:06:00,62.8,43.3,30.07,North,0,0.0,0.0,49,0.00,,,0.00,WUHU216HW,2013-05-13 14:06:00,
2013-05-13 10:30:00,64.1,42.1,30.07,North,0,0.0,0.0,45,0.00,,,0.00,WUHU216HW,2013-05-13 14:30:00,
2013-05-13 10:31:00,64.1,42.1,30.07,North,0,0.0,0.0,45,0.00,,,0.00,WUHU216HW,2013-05-13 14:31:00,
2013-05-13 10:36:00,64.1,42.1,30.07,North,0,0.0,0.0,45,0.00,,,0.00,WUHU216HW,2013-05-13 14:36:00,
2013-05-13 11:00:00,65.9,42.7,30.07,North,0,0.0,0.0,43,0.00,,,0.00,WUHU216HW,2013-05-13 15:00:00,
2013-05-13 11:01:00,65.9,42.7,30.07,North,0,0.0,0.0,43,0.00,,,0.00,WUHU216HW,2013-05-13 15:01:00,
2013-05-13 11:06:00,65.9,42.7,30.07,North,0,0.0,0.0,43,0.00,,,0.00,WUHU216HW,2013-05-13 15:06:00,
2013-05-13 11:30:00,68.4,44.9,30.06,North,0,0.0,0.0,43,0.00,,,0.00,WUHU216HW,2013-05-13 15:30:00,
2013-05-13 11:31:00,68.4,44.9,30.06,North,0,0.0,0.0,43,0.00,,,0.00,WUHU216HW,2013-05-13 15:31:00,
2013-05-13 11:36:00,68.4,44.9,30.06,North,0,0.0,0.0,43,0.00,,,0.00,WUHU216HW,2013-05-13 15:36:00,
2013-05-13 12:00:00,68.6,43.3,30.06,North,0,0.0,0.0,40,0.00,,,0.00,WUHU216HW,2013-05-13 16:00:00,
2013-05-13 12:01:00,68.6,43.3,30.06,North,0,0.0,0.0,40,0.00,,,0.00,WUHU216HW,2013-05-13 16:01:00,
2013-05-13 12:06:00,68.6,43.3,30.06,North,0,0.0,0.0,40,0.00,,,0.00,WUHU216HW,2013-05-13 16:06:00,
2013-05-13 12:30:00,68.4,43.2,30.05,North,0,0.0,0.0,40,0.00,,,0.00,WUHU216HW,2013-05-13 16:30:00,
2013-05-13 12:31:00,68.4,43.2,30.05,North,0,0.0,0.0,40,0.00,,,0.00,WUHU216HW,2013-05-13 16:31:00,
2013-05-13 12:36:00,68.4,43.2,30.05,North,0,0.0,0.0,40,0.00,,,0.00,WUHU216HW,2013-05-13 16:36:00,
2013-05-13 13:00:00,70.2,44.0,30.04,North,0,0.0,0.0,39,0.00,,,0.00,WUHU216HW,2013-05-13 17:00:00,
2013-05-13 13:01:00,70.2,44.0,30.04,North,0,0.0,0.0,39,0.00,,,0.00,WUHU216HW,2013-05-13 17:01:00,
2013-05-13 13:06:00,70.2,44.0,30.04,North,0,0.0,0.0,39,0.00,,,0.00,WUHU216HW,2013-05-13 17:06:00,
2013-05-13 13:30:00,70.6,44.4,30.02,North,0,0.0,0.0,39,0.00,,,0.00,WUHU216HW,2013-05-13 17:30:00,
2013-05-13 13:31:00,70.6,44.4,30.02,North,0,0.0,0.0,39,0.00,,,0.00,WUHU216HW,2013-05-13 17:31:00,
2013-05-13 13:36:00,70.6,44.4,30.02,North,0,0.0,0.0,39,0.00,,,0.00,WUHU216HW,2013-05-13 17:36:00,
2013-05-13 14:00:00,70.2,43.3,30.02,North,0,0.0,0.0,38,0.00,,,0.00,WUHU216HW,2013-05-13 18:00:00,
2013-05-13 14:01:00,70.2,43.3,30.02,North,0,0.0,0.0,38,0.00,,,0.00,WUHU216HW,2013-05-13 18:01:00,
2013-05-13 14:06:00,70.2,43.3,30.02,North,0,0.0,0.0,38,0.00,,,0.00,WUHU216HW,2013-05-13 18:06:00,
2013-05-13 14:30:00,71.1,44.1,30.00,North,0,0.0,0.0,38,0.00,,,0.00,WUHU216HW,2013-05-13 18:30:00,
2013-05-13 14:31:00,71.1,44.1,30.00,North,0,0.0,0.0,38,0.00,,,0.00,WUHU216HW,2013-05-13 18:31:00,
2013-05-13 14:36:00,71.1,44.1,30.00,North,0,0.0,0.0,38,0.00,,,0.00,WUHU216HW,2013-05-13 18:36:00,
2013-05-13 15:00:00,71.3,43.6,29.99,North,0,0.0,0.0,37,0.00,,,0.00,WUHU216HW,2013-05-13 19:00:00,
2013-05-13 15:01:00,71.3,43.6,29.99,North,0,0.0,0.0,37,0.00,,,0.00,WUHU216HW,2013-05-13 19:01:00,
2013-05-13 15:06:00,71.3,43.6,29.99,North,0,0.0,0.0,37,0.00,,,0.00,WUHU216HW,2013-05-13 19:06:00,
2013-05-13 15:30:00,70.4,41.2,29.98,North,0,0.0,0.0,35,0.00,,,0.00,WUHU216HW,2013-05-13 19:30:00,
2013-05-13 15:31:00,70.4,41.2,29.98,North,0,0.0,0.0,35,0.00,,,0.00,WUHU216HW,2013-05-13 19:31:00,
2013-05-13 15:36:00,70.4,41.2,29.98,North,0,0.0,0.0,35,0.00,,,0.00,WUHU216HW,2013-05-13 19:36:00,
2013-05-13 16:00:00,70.0,42.4,29.97,North,0,0.0,0.0,37,0.00,,,0.00,WUHU216HW,2013-05-13 20:00:00,
2013-05-13 16:01:00,70.0,42.4,29.97,North,0,0.0,0.0,37,0.00,,,0.00,WUHU216HW,2013-05-13 20:01:00,
2013-05-13 16:06:00,70.0,42.4,29.97,North,0,0.0,0.0,37,0.00,,,0.00,WUHU216HW,2013-05-13 20:06:00,
2013-05-13 16:30:00,69.7,41.3,29.96,North,0,0.0,0.0,36,0.00,,,0.00,WUHU216HW,2013-05-13 20:30:00,
2013-05-13 17:00:00,69.3,41.8,29.95,North,0,0.0,0.0,37,0.00,,,0.00,WUHU216HW,2013-05-13 21:00:00,
2013-05-13 17:01:00,69.3,41.8,29.95,North,0,0.0,0.0,37,0.00,,,0.00,WUHU216HW,2013-05-13 21:01:00,
2013-05-13 17:06:00,69.3,41.8,29.95,North,0,0.0,0.0,37,0.00,,,0.00,WUHU216HW,2013-05-13 21:06:00,
2013-05-13 17:30:00,69.5,43.4,29.94,North,0,0.0,0.0,39,0.00,,,0.00,WUHU216HW,2013-05-13 21:30:00,
2013-05-13 17:31:00,69.5,43.4,29.94,North,0,0.0,0.0,39,0.00,,,0.00,WUHU216HW,2013-05-13 21:31:00,
2013-05-13 17:36:00,69.5,43.4,29.94,North,0,0.0,0.0,39,0.00,,,0.00,WUHU216HW,2013-05-13 21:36:00,
2013-05-13 18:00:00,69.7,43.6,29.94,North,0,0.0,0.0,39,0.00,,,0.00,WUHU216HW,2013-05-13 22:00:00,
2013-05-13 18:01:00,69.7,43.6,29.94,North,0,0.0,0.0,39,0.00,,,0.00,WUHU216HW,2013-05-13 22:01:00,
2013-05-13 18:06:00,69.7,43.6,29.94,North,0,0.0,0.0,39,0.00,,,0.00,WUHU216HW,2013-05-13 22:06:00,
2013-05-13 18:30:00,69.1,42.3,29.94,North,0,0.0,0.0,38,0.00,,,0.00,WUHU216HW,2013-05-13 22:30:00,
2013-05-13 18:31:00,69.1,42.3,29.94,North,0,0.0,0.0,38,0.00,,,0.00,WUHU216HW,2013-05-13 22:31:00,
2013-05-13 18:36:00,69.1,42.3,29.94,North,0,0.0,0.0,38,0.00,,,0.00,WUHU216HW,2013-05-13 22:36:00,
2013-05-13 19:00:00,68.2,42.3,29.94,North,0,0.0,0.0,39,0.00,,,0.00,WUHU216HW,2013-05-13 23:00:00,
2013-05-13 19:01:00,68.2,42.3,29.94,North,0,0.0,0.0,39,0.00,,,0.00,WUHU216HW,2013-05-13 23:01:00,
2013-05-13 19:06:00,68.2,42.3,29.94,North,0,0.0,0.0,39,0.00,,,0.00,WUHU216HW,2013-05-13 23:06:00,
2013-05-13 19:30:00,67.1,41.3,29.95,North,0,0.0,0.0,39,0.00,,,0.00,WUHU216HW,2013-05-13 23:30:00,
2013-05-13 19:31:00,67.1,41.3,29.95,North,0,0.0,0.0,39,0.00,,,0.00,WUHU216HW,2013-05-13 23:31:00,
2013-05-13 19:36:00,67.1,41.3,29.95,North,0,0.0,0.0,39,0.00,,,0.00,WUHU216HW,2013-05-13 23:36:00,
2013-05-13 20:00:00,66.2,41.9,29.96,North,0,0.0,0.0,41,0.00,,,0.00,WUHU216HW,2013-05-14 00:00:00,
2013-05-13 20:01:00,66.2,41.9,29.96,North,0,0.0,0.0,41,0.00,,,0.00,WUHU216HW,2013-05-14 00:01:00,
2013-05-13 20:06:00,66.2,41.9,29.96,North,0,0.0,0.0,41,0.00,,,0.00,WUHU216HW,2013-05-14 00:06:00,
2013-05-13 20:30:00,65.9,42.1,29.98,North,0,0.0,0.0,42,0.00,,,0.00,WUHU216HW,2013-05-14 00:30:00,
2013-05-13 20:31:00,65.9,42.1,29.98,North,0,0.0,0.0,42,0.00,,,0.00,WUHU216HW,2013-05-14 00:31:00,
2013-05-13 20:36:00,65.9,42.1,29.98,North,0,0.0,0.0,42,0.00,,,0.00,WUHU216HW,2013-05-14 00:36:00,
2013-05-13 21:00:00,64.6,41.5,30.00,North,0,0.0,0.0,43,0.00,,,0.00,WUHU216HW,2013-05-14 01:00:00,
2013-05-13 21:01:00,64.6,41.5,30.00,North,0,0.0,0.0,43,0.00,,,0.00,WUHU216HW,2013-05-14 01:01:00,
2013-05-13 21:06:00,64.6,41.5,30.00,North,0,0.0,0.0,43,0.00,,,0.00,WUHU216HW,2013-05-14 01:06:00,
2013-05-13 21:30:00,62.3,39.4,30.02,North,0,0.0,0.0,43,0.00,,,0.00,WUHU216HW,2013-05-14 01:30:00,
2013-05-13 21:31:00,62.3,39.4,30.02,North,0,0.0,0.0,43,0.00,,,0.00,WUHU216HW,2013-05-14 01:31:00,
2013-05-13 21:36:00,62.3,39.4,30.02,North,0,0.0,0.0,43,0.00,,,0.00,WUHU216HW,2013-05-14 01:36:00,
2013-05-13 22:00:00,60.7,38.5,30.03,North,0,0.0,0.0,44,0.00,,,0.00,WUHU216HW,2013-05-14 02:00:00,
2013-05-13 22:01:00,60.7,38.5,30.03,North,0,0.0,0.0,44,0.00,,,0.00,WUHU216HW,2013-05-14 02:01:00,
2013-05-13 22:06:00,60.7,38.5,30.03,North,0,0.0,0.0,44,0.00,,,0.00,WUHU216HW,2013-05-14 02:06:00,
2013-05-13 22:30:00,59.0,38.8,30.04,North,0,0.0,0.0,47,0.00,,,0.00,WUHU216HW,2013-05-14 02:30:00,
2013-05-13 22:31:00,59.0,38.8,30.04,North,0,0.0,0.0,47,0.00,,,0.00,WUHU216HW,2013-05-14 02:31:00,
2013-05-13 22:36:00,59.0,38.8,30.04,North,0,0.0,0.0,47,0.00,,,0.00,WUHU216HW,2013-05-14 02:36:00,
2013-05-13 23:00:00,58.0,39.0,30.05,North,0,0.0,0.0,49,0.00,,,0.00,WUHU216HW,2013-05-14 03:00:00,
2013-05-13 23:01:00,58.0,39.0,30.05,North,0,0.0,0.0,49,0.00,,,0.00,WUHU216HW,2013-05-14 03:01:00,
2013-05-13 23:06:00,58.0,39.0,30.05,North,0,0.0,0.0,49,0.00,,,0.00,WUHU216HW,2013-05-14 03:06:00,
2013-05-13 23:30:00,56.9,38.5,30.06,North,0,0.0,0.0,50,0.00,,,0.00,WUHU216HW,2013-05-14 03:30:00,
2013-05-13 23:31:00,56.9,38.5,30.06,North,0,0.0,0.0,50,0.00,,,0.00,WUHU216HW,2013-05-14 03:31:00,
2013-05-13 23:36:00,56.9,38.5,30.06,North,0,0.0,0.0,50,0.00,,,0.00,WUHU216HW,2013-05-14 03:36:00,